sensor_id;sensor_type;location;lat;lon;timestamp;temperature;humidity
254;DHT22;590;48.772;8.846;2023-03-23T00:00:07;17.10;6.00
254;DHT22;590;48.772;8.846;2023-03-23T00:02:35;17.10;6.00
254;DHT22;590;48.772;8.846;2023-03-23T00:05:06;17.10;6.00
254;DHT22;590;48.772;8.846;2023-03-23T00:07:34;17.10;6.00
254;DHT22;590;48.772;8.846;2023-03-23T00:10:02;17.10;6.00
254;DHT22;590;48.772;8.846;2023-03-23T00:12:31;17.10;6.00
254;DHT22;590;48.772;8.846;2023-03-23T00:15:00;17.10;6.00
254;DHT22;590;48.772;8.846;2023-03-23T00:17:27;17.10;6.00
254;DHT22;590;48.772;8.846;2023-03-23T00:19:54;17.10;6.00
254;DHT22;590;48.772;8.846;2023-03-23T00:22:23;17.10;6.00
254;DHT22;590;48.772;8.846;2023-03-23T00:24:51;17.10;6.00
254;DHT22;590;48.772;8.846;2023-03-23T00:27:18;17.10;6.00
254;DHT22;590;48.772;8.846;2023-03-23T00:29:47;17.10;6.00
254;DHT22;590;48.772;8.846;2023-03-23T00:32:18;17.10;6.00
254;DHT22;590;48.772;8.846;2023-03-23T00:34:46;17.10;6.00
254;DHT22;590;48.772;8.846;2023-03-23T00:37:14;17.10;6.00
254;DHT22;590;48.772;8.846;2023-03-23T00:39:44;17.10;6.00
254;DHT22;590;48.772;8.846;2023-03-23T00:42:13;17.10;6.00
254;DHT22;590;48.772;8.846;2023-03-23T00:44:40;17.10;6.00
254;DHT22;590;48.772;8.846;2023-03-23T00:47:07;17.10;6.00
254;DHT22;590;48.772;8.846;2023-03-23T00:49:35;17.10;6.00
254;DHT22;590;48.772;8.846;2023-03-23T00:52:03;17.10;6.00
254;DHT22;590;48.772;8.846;2023-03-23T00:54:30;17.10;6.00
254;DHT22;590;48.772;8.846;2023-03-23T00:56:59;17.10;6.00
254;DHT22;590;48.772;8.846;2023-03-23T00:59:25;17.00;5.90
254;DHT22;590;48.772;8.846;2023-03-23T01:01:52;17.00;5.90
254;DHT22;590;48.772;8.846;2023-03-23T01:04:19;17.00;5.90
254;DHT22;590;48.772;8.846;2023-03-23T01:06:49;17.10;6.00
254;DHT22;590;48.772;8.846;2023-03-23T01:09:18;17.00;5.90
254;DHT22;590;48.772;8.846;2023-03-23T01:11:47;17.00;5.90
254;DHT22;590;48.772;8.846;2023-03-23T01:14:18;17.00;5.90
254;DHT22;590;48.772;8.846;2023-03-23T01:16:45;17.00;5.90
254;DHT22;590;48.772;8.846;2023-03-23T01:19:12;17.00;6.00
254;DHT22;590;48.772;8.846;2023-03-23T01:21:41;17.00;5.90
254;DHT22;590;48.772;8.846;2023-03-23T01:24:08;17.00;5.90
254;DHT22;590;48.772;8.846;2023-03-23T01:26:36;17.00;5.90
254;DHT22;590;48.772;8.846;2023-03-23T01:29:03;17.00;5.90
254;DHT22;590;48.772;8.846;2023-03-23T01:31:32;17.00;5.90
254;DHT22;590;48.772;8.846;2023-03-23T01:34:00;17.00;5.90
254;DHT22;590;48.772;8.846;2023-03-23T01:36:28;17.00;5.90
254;DHT22;590;48.772;8.846;2023-03-23T01:38:59;17.00;5.90
254;DHT22;590;48.772;8.846;2023-03-23T01:41:26;17.00;5.90
254;DHT22;590;48.772;8.846;2023-03-23T01:43:58;17.00;5.90
254;DHT22;590;48.772;8.846;2023-03-23T01:46:28;17.00;5.90
254;DHT22;590;48.772;8.846;2023-03-23T01:49:01;17.00;5.90
254;DHT22;590;48.772;8.846;2023-03-23T01:51:33;17.00;5.90
254;DHT22;590;48.772;8.846;2023-03-23T01:54:03;17.00;6.00
254;DHT22;590;48.772;8.846;2023-03-23T01:56:33;17.00;6.00
254;DHT22;590;48.772;8.846;2023-03-23T01:59:03;17.00;5.90
254;DHT22;590;48.772;8.846;2023-03-23T02:01:30;17.00;5.90
254;DHT22;590;48.772;8.846;2023-03-23T02:04:06;17.00;6.00
254;DHT22;590;48.772;8.846;2023-03-23T02:06:34;17.00;5.90
254;DHT22;590;48.772;8.846;2023-03-23T02:09:01;17.00;5.90
254;DHT22;590;48.772;8.846;2023-03-23T02:11:29;17.00;5.90
254;DHT22;590;48.772;8.846;2023-03-23T02:13:56;17.00;5.90
254;DHT22;590;48.772;8.846;2023-03-23T02:16:31;17.00;5.90
254;DHT22;590;48.772;8.846;2023-03-23T02:19:13;17.00;5.90
254;DHT22;590;48.772;8.846;2023-03-23T02:22:06;17.00;5.90
254;DHT22;590;48.772;8.846;2023-03-23T02:25:00;17.00;5.90
254;DHT22;590;48.772;8.846;2023-03-23T02:27:51;17.00;5.90
254;DHT22;590;48.772;8.846;2023-03-23T02:30:31;17.00;5.90
254;DHT22;590;48.772;8.846;2023-03-23T02:33:29;17.00;5.90
254;DHT22;590;48.772;8.846;2023-03-23T02:36:00;17.00;5.90
254;DHT22;590;48.772;8.846;2023-03-23T02:38:31;16.90;5.80
254;DHT22;590;48.772;8.846;2023-03-23T02:41:01;17.00;6.00
254;DHT22;590;48.772;8.846;2023-03-23T02:43:31;16.90;5.80
254;DHT22;590;48.772;8.846;2023-03-23T02:46:00;16.90;5.80
254;DHT22;590;48.772;8.846;2023-03-23T02:48:30;16.90;5.80
254;DHT22;590;48.772;8.846;2023-03-23T02:50:58;16.90;5.80
254;DHT22;590;48.772;8.846;2023-03-23T02:53:27;17.00;5.80
254;DHT22;590;48.772;8.846;2023-03-23T02:55:56;17.00;5.80
254;DHT22;590;48.772;8.846;2023-03-23T02:58:24;17.00;5.70
254;DHT22;590;48.772;8.846;2023-03-23T03:00:51;17.00;5.70
254;DHT22;590;48.772;8.846;2023-03-23T03:03:20;17.00;5.70
254;DHT22;590;48.772;8.846;2023-03-23T03:05:56;17.00;5.70
254;DHT22;590;48.772;8.846;2023-03-23T03:08:37;17.00;5.70
254;DHT22;590;48.772;8.846;2023-03-23T03:11:08;17.00;5.60
254;DHT22;590;48.772;8.846;2023-03-23T03:13:45;17.00;5.60
254;DHT22;590;48.772;8.846;2023-03-23T03:16:22;17.00;5.60
254;DHT22;590;48.772;8.846;2023-03-23T03:18:54;17.00;5.60
254;DHT22;590;48.772;8.846;2023-03-23T03:21:27;17.00;5.60
254;DHT22;590;48.772;8.846;2023-03-23T03:23:56;17.00;5.60
254;DHT22;590;48.772;8.846;2023-03-23T03:26:26;17.00;5.60
254;DHT22;590;48.772;8.846;2023-03-23T03:28:55;17.00;5.60
254;DHT22;590;48.772;8.846;2023-03-23T03:31:26;17.00;5.60
254;DHT22;590;48.772;8.846;2023-03-23T03:33:54;17.00;5.60
254;DHT22;590;48.772;8.846;2023-03-23T03:36:26;17.00;5.60
254;DHT22;590;48.772;8.846;2023-03-23T03:38:53;17.00;5.60
254;DHT22;590;48.772;8.846;2023-03-23T03:41:22;17.00;5.60
254;DHT22;590;48.772;8.846;2023-03-23T03:43:49;17.00;5.60
254;DHT22;590;48.772;8.846;2023-03-23T03:46:16;17.00;6.20
254;DHT22;590;48.772;8.846;2023-03-23T03:48:43;17.00;5.60
254;DHT22;590;48.772;8.846;2023-03-23T03:51:10;17.00;5.60
254;DHT22;590;48.772;8.846;2023-03-23T03:53:38;17.00;5.60
254;DHT22;590;48.772;8.846;2023-03-23T03:56:06;17.00;5.60
254;DHT22;590;48.772;8.846;2023-03-23T03:58:33;17.00;5.60
254;DHT22;590;48.772;8.846;2023-03-23T04:01:02;17.00;5.60
254;DHT22;590;48.772;8.846;2023-03-23T04:03:29;17.00;5.60
254;DHT22;590;48.772;8.846;2023-03-23T04:05:56;17.00;5.60
254;DHT22;590;48.772;8.846;2023-03-23T04:08:25;17.00;5.60
254;DHT22;590;48.772;8.846;2023-03-23T04:10:53;17.00;5.70
254;DHT22;590;48.772;8.846;2023-03-23T04:13:21;17.00;5.60
254;DHT22;590;48.772;8.846;2023-03-23T04:15:48;17.00;6.20
254;DHT22;590;48.772;8.846;2023-03-23T04:18:16;17.00;5.70
254;DHT22;590;48.772;8.846;2023-03-23T04:20:44;17.00;5.60
254;DHT22;590;48.772;8.846;2023-03-23T04:23:13;17.00;5.60
254;DHT22;590;48.772;8.846;2023-03-23T04:25:40;17.00;5.70
254;DHT22;590;48.772;8.846;2023-03-23T04:28:09;17.00;5.60
254;DHT22;590;48.772;8.846;2023-03-23T04:30:36;17.00;5.60
254;DHT22;590;48.772;8.846;2023-03-23T04:33:03;17.00;5.60
254;DHT22;590;48.772;8.846;2023-03-23T04:35:30;17.00;5.60
254;DHT22;590;48.772;8.846;2023-03-23T04:37:57;17.00;5.50
254;DHT22;590;48.772;8.846;2023-03-23T04:40:24;17.10;5.60
254;DHT22;590;48.772;8.846;2023-03-23T04:42:51;17.10;5.50
254;DHT22;590;48.772;8.846;2023-03-23T04:45:24;17.10;5.50
254;DHT22;590;48.772;8.846;2023-03-23T04:47:52;17.10;5.50
254;DHT22;590;48.772;8.846;2023-03-23T04:50:23;17.10;5.40
254;DHT22;590;48.772;8.846;2023-03-23T04:52:52;17.20;5.50
254;DHT22;590;48.772;8.846;2023-03-23T04:55:20;17.20;5.40
254;DHT22;590;48.772;8.846;2023-03-23T04:57:47;17.20;5.50
254;DHT22;590;48.772;8.846;2023-03-23T05:00:15;17.20;5.40
254;DHT22;590;48.772;8.846;2023-03-23T05:02:44;17.20;5.40
254;DHT22;590;48.772;8.846;2023-03-23T05:05:13;17.20;5.40
254;DHT22;590;48.772;8.846;2023-03-23T05:07:41;17.20;5.40
254;DHT22;590;48.772;8.846;2023-03-23T05:10:10;17.30;5.40
254;DHT22;590;48.772;8.846;2023-03-23T05:12:37;17.30;5.40
254;DHT22;590;48.772;8.846;2023-03-23T05:15:06;17.30;5.40
254;DHT22;590;48.772;8.846;2023-03-23T05:17:33;17.30;5.40
254;DHT22;590;48.772;8.846;2023-03-23T05:20:04;17.30;5.50
254;DHT22;590;48.772;8.846;2023-03-23T05:22:33;17.30;5.40
254;DHT22;590;48.772;8.846;2023-03-23T05:25:02;17.30;5.40
254;DHT22;590;48.772;8.846;2023-03-23T05:27:30;17.30;5.40
254;DHT22;590;48.772;8.846;2023-03-23T05:29:58;17.30;5.40
254;DHT22;590;48.772;8.846;2023-03-23T05:32:26;17.30;5.40
254;DHT22;590;48.772;8.846;2023-03-23T05:34:55;17.30;5.40
254;DHT22;590;48.772;8.846;2023-03-23T05:37:24;17.30;5.40
254;DHT22;590;48.772;8.846;2023-03-23T05:39:52;17.30;5.30
254;DHT22;590;48.772;8.846;2023-03-23T05:42:21;17.30;5.40
254;DHT22;590;48.772;8.846;2023-03-23T05:44:48;17.30;5.40
254;DHT22;590;48.772;8.846;2023-03-23T05:47:15;17.30;5.40
254;DHT22;590;48.772;8.846;2023-03-23T05:49:42;17.30;5.40
254;DHT22;590;48.772;8.846;2023-03-23T05:52:09;17.30;5.50
254;DHT22;590;48.772;8.846;2023-03-23T05:54:37;17.30;5.40
254;DHT22;590;48.772;8.846;2023-03-23T05:57:04;17.30;5.50
254;DHT22;590;48.772;8.846;2023-03-23T05:59:32;17.30;5.50
254;DHT22;590;48.772;8.846;2023-03-23T06:01:59;17.30;5.50
254;DHT22;590;48.772;8.846;2023-03-23T06:04:26;17.30;5.50
254;DHT22;590;48.772;8.846;2023-03-23T06:06:53;17.40;5.60
254;DHT22;590;48.772;8.846;2023-03-23T06:09:21;17.40;5.60
254;DHT22;590;48.772;8.846;2023-03-23T06:11:50;17.40;5.60
254;DHT22;590;48.772;8.846;2023-03-23T06:14:17;17.40;5.60
254;DHT22;590;48.772;8.846;2023-03-23T06:16:44;17.40;5.60
254;DHT22;590;48.772;8.846;2023-03-23T06:19:11;17.40;5.60
254;DHT22;590;48.772;8.846;2023-03-23T06:21:38;17.40;5.60
254;DHT22;590;48.772;8.846;2023-03-23T06:24:05;17.40;5.60
254;DHT22;590;48.772;8.846;2023-03-23T06:26:35;17.40;5.60
254;DHT22;590;48.772;8.846;2023-03-23T06:29:05;17.40;5.60
254;DHT22;590;48.772;8.846;2023-03-23T06:31:37;17.40;5.60
254;DHT22;590;48.772;8.846;2023-03-23T06:34:05;17.40;5.60
254;DHT22;590;48.772;8.846;2023-03-23T06:36:32;17.40;5.60
254;DHT22;590;48.772;8.846;2023-03-23T06:38:59;17.40;5.60
254;DHT22;590;48.772;8.846;2023-03-23T06:41:26;17.40;5.60
254;DHT22;590;48.772;8.846;2023-03-23T06:43:53;17.40;5.60
254;DHT22;590;48.772;8.846;2023-03-23T06:46:22;17.40;5.60
254;DHT22;590;48.772;8.846;2023-03-23T06:48:49;17.40;5.60
254;DHT22;590;48.772;8.846;2023-03-23T06:51:16;17.40;5.60
254;DHT22;590;48.772;8.846;2023-03-23T06:53:43;17.40;5.60
254;DHT22;590;48.772;8.846;2023-03-23T06:56:10;17.40;5.70
254;DHT22;590;48.772;8.846;2023-03-23T06:58:38;17.40;5.60
254;DHT22;590;48.772;8.846;2023-03-23T07:01:06;17.40;5.70
254;DHT22;590;48.772;8.846;2023-03-23T07:03:35;17.40;5.70
254;DHT22;590;48.772;8.846;2023-03-23T07:06:02;17.40;5.60
254;DHT22;590;48.772;8.846;2023-03-23T07:08:30;17.40;5.70
254;DHT22;590;48.772;8.846;2023-03-23T07:10:57;17.40;5.70
254;DHT22;590;48.772;8.846;2023-03-23T07:13:24;17.40;5.70
254;DHT22;590;48.772;8.846;2023-03-23T07:15:52;17.40;5.70
254;DHT22;590;48.772;8.846;2023-03-23T07:18:20;17.40;5.70
254;DHT22;590;48.772;8.846;2023-03-23T07:20:50;17.40;5.70
254;DHT22;590;48.772;8.846;2023-03-23T07:23:17;17.40;5.70
254;DHT22;590;48.772;8.846;2023-03-23T07:25:45;17.40;5.70
254;DHT22;590;48.772;8.846;2023-03-23T07:28:15;17.40;5.70
254;DHT22;590;48.772;8.846;2023-03-23T07:30:42;17.40;5.70
254;DHT22;590;48.772;8.846;2023-03-23T07:33:09;17.50;5.80
254;DHT22;590;48.772;8.846;2023-03-23T07:35:37;17.40;5.70
254;DHT22;590;48.772;8.846;2023-03-23T07:38:06;17.50;5.80
254;DHT22;590;48.772;8.846;2023-03-23T07:40:34;17.50;5.80
254;DHT22;590;48.772;8.846;2023-03-23T07:43:02;17.50;5.70
254;DHT22;590;48.772;8.846;2023-03-23T07:45:30;17.50;5.80
254;DHT22;590;48.772;8.846;2023-03-23T07:47:57;17.50;5.80
254;DHT22;590;48.772;8.846;2023-03-23T07:50:25;17.50;5.70
254;DHT22;590;48.772;8.846;2023-03-23T07:52:54;17.50;5.80
254;DHT22;590;48.772;8.846;2023-03-23T07:55:22;17.50;5.80
254;DHT22;590;48.772;8.846;2023-03-23T07:57:51;17.50;5.80
254;DHT22;590;48.772;8.846;2023-03-23T08:00:20;17.50;5.70
254;DHT22;590;48.772;8.846;2023-03-23T08:02:50;17.50;5.80
254;DHT22;590;48.772;8.846;2023-03-23T08:05:19;17.50;5.70
254;DHT22;590;48.772;8.846;2023-03-23T08:07:48;17.50;5.80
254;DHT22;590;48.772;8.846;2023-03-23T08:10:16;17.50;5.80
254;DHT22;590;48.772;8.846;2023-03-23T08:12:45;17.50;5.80
254;DHT22;590;48.772;8.846;2023-03-23T08:15:13;17.50;5.80
254;DHT22;590;48.772;8.846;2023-03-23T08:17:41;17.50;5.70
254;DHT22;590;48.772;8.846;2023-03-23T08:20:10;17.50;5.70
254;DHT22;590;48.772;8.846;2023-03-23T08:22:39;17.50;5.70
254;DHT22;590;48.772;8.846;2023-03-23T08:25:08;17.50;5.70
254;DHT22;590;48.772;8.846;2023-03-23T08:27:36;17.50;5.70
254;DHT22;590;48.772;8.846;2023-03-23T08:30:06;17.50;5.80
254;DHT22;590;48.772;8.846;2023-03-23T08:32:33;17.50;5.80
254;DHT22;590;48.772;8.846;2023-03-23T08:35:01;17.50;5.80
254;DHT22;590;48.772;8.846;2023-03-23T08:37:28;17.50;5.80
254;DHT22;590;48.772;8.846;2023-03-23T08:39:56;17.50;5.80
254;DHT22;590;48.772;8.846;2023-03-23T08:42:24;17.50;5.80
254;DHT22;590;48.772;8.846;2023-03-23T08:45:07;17.50;5.80
254;DHT22;590;48.772;8.846;2023-03-23T08:47:36;17.50;5.80
254;DHT22;590;48.772;8.846;2023-03-23T08:50:04;17.50;5.80
254;DHT22;590;48.772;8.846;2023-03-23T08:52:32;17.50;5.80
254;DHT22;590;48.772;8.846;2023-03-23T08:54:59;17.50;5.90
254;DHT22;590;48.772;8.846;2023-03-23T08:57:26;17.50;5.90
254;DHT22;590;48.772;8.846;2023-03-23T08:59:54;17.50;5.90
254;DHT22;590;48.772;8.846;2023-03-23T09:02:27;17.50;5.90
254;DHT22;590;48.772;8.846;2023-03-23T09:04:56;17.50;5.90
254;DHT22;590;48.772;8.846;2023-03-23T09:07:23;17.50;5.90
254;DHT22;590;48.772;8.846;2023-03-23T09:09:50;17.50;5.90
254;DHT22;590;48.772;8.846;2023-03-23T09:12:17;17.50;5.90
254;DHT22;590;48.772;8.846;2023-03-23T09:14:46;17.50;5.90
254;DHT22;590;48.772;8.846;2023-03-23T09:17:13;17.50;6.00
254;DHT22;590;48.772;8.846;2023-03-23T09:19:42;17.50;6.00
254;DHT22;590;48.772;8.846;2023-03-23T09:22:09;17.50;6.00
254;DHT22;590;48.772;8.846;2023-03-23T09:24:35;17.40;5.90
254;DHT22;590;48.772;8.846;2023-03-23T09:27:03;17.40;5.90
254;DHT22;590;48.772;8.846;2023-03-23T09:29:30;17.40;5.90
254;DHT22;590;48.772;8.846;2023-03-23T09:31:57;17.40;5.90
254;DHT22;590;48.772;8.846;2023-03-23T09:34:24;17.40;6.00
254;DHT22;590;48.772;8.846;2023-03-23T09:36:52;17.40;6.00
254;DHT22;590;48.772;8.846;2023-03-23T09:39:19;17.40;6.00
254;DHT22;590;48.772;8.846;2023-03-23T09:42:07;17.40;6.00
254;DHT22;590;48.772;8.846;2023-03-23T09:45:00;17.40;6.00
254;DHT22;590;48.772;8.846;2023-03-23T09:47:35;17.40;6.00
254;DHT22;590;48.772;8.846;2023-03-23T09:50:09;17.40;6.00
254;DHT22;590;48.772;8.846;2023-03-23T09:52:42;17.40;6.10
254;DHT22;590;48.772;8.846;2023-03-23T09:55:13;17.40;6.10
254;DHT22;590;48.772;8.846;2023-03-23T09:57:47;17.40;6.00
254;DHT22;590;48.772;8.846;2023-03-23T10:00:19;17.40;6.10
254;DHT22;590;48.772;8.846;2023-03-23T10:02:52;17.40;6.10
254;DHT22;590;48.772;8.846;2023-03-23T10:05:30;17.40;6.10
254;DHT22;590;48.772;8.846;2023-03-23T10:08:01;17.40;6.10
254;DHT22;590;48.772;8.846;2023-03-23T10:10:35;17.40;6.10
254;DHT22;590;48.772;8.846;2023-03-23T10:13:07;17.40;6.10
254;DHT22;590;48.772;8.846;2023-03-23T10:15:39;17.40;6.10
254;DHT22;590;48.772;8.846;2023-03-23T10:18:12;17.40;6.10
254;DHT22;590;48.772;8.846;2023-03-23T10:20:45;17.40;6.20
254;DHT22;590;48.772;8.846;2023-03-23T10:23:34;17.40;6.20
254;DHT22;590;48.772;8.846;2023-03-23T10:26:08;17.40;6.10
254;DHT22;590;48.772;8.846;2023-03-23T10:28:37;17.40;6.20
254;DHT22;590;48.772;8.846;2023-03-23T10:31:07;17.30;6.00
254;DHT22;590;48.772;8.846;2023-03-23T10:33:39;17.40;6.20
254;DHT22;590;48.772;8.846;2023-03-23T10:36:12;17.30;6.10
254;DHT22;590;48.772;8.846;2023-03-23T10:38:44;17.40;6.20
254;DHT22;590;48.772;8.846;2023-03-23T10:41:14;17.40;6.20
254;DHT22;590;48.772;8.846;2023-03-23T10:43:43;17.40;6.70
254;DHT22;590;48.772;8.846;2023-03-23T10:46:25;17.40;6.20
254;DHT22;590;48.772;8.846;2023-03-23T10:48:54;17.40;6.20
254;DHT22;590;48.772;8.846;2023-03-23T10:51:27;17.30;6.10
254;DHT22;590;48.772;8.846;2023-03-23T10:54:00;17.30;6.10
254;DHT22;590;48.772;8.846;2023-03-23T10:56:28;17.40;6.30
254;DHT22;590;48.772;8.846;2023-03-23T10:58:55;17.30;6.10
254;DHT22;590;48.772;8.846;2023-03-23T11:01:30;17.40;6.20
254;DHT22;590;48.772;8.846;2023-03-23T11:03:57;17.30;6.20
254;DHT22;590;48.772;8.846;2023-03-23T11:06:27;17.30;6.10
254;DHT22;590;48.772;8.846;2023-03-23T11:08:58;17.30;6.10
254;DHT22;590;48.772;8.846;2023-03-23T11:11:28;17.30;6.20
254;DHT22;590;48.772;8.846;2023-03-23T11:14:00;17.30;6.20
254;DHT22;590;48.772;8.846;2023-03-23T11:16:29;17.30;6.30
254;DHT22;590;48.772;8.846;2023-03-23T11:18:57;17.30;6.20
254;DHT22;590;48.772;8.846;2023-03-23T11:21:25;17.30;6.20
254;DHT22;590;48.772;8.846;2023-03-23T11:23:54;17.30;6.20
254;DHT22;590;48.772;8.846;2023-03-23T11:26:26;17.30;6.20
254;DHT22;590;48.772;8.846;2023-03-23T11:28:57;17.30;6.20
254;DHT22;590;48.772;8.846;2023-03-23T11:31:28;17.30;6.20
254;DHT22;590;48.772;8.846;2023-03-23T11:33:58;17.30;6.20
254;DHT22;590;48.772;8.846;2023-03-23T11:36:35;17.30;6.20
254;DHT22;590;48.772;8.846;2023-03-23T11:39:03;17.30;6.10
254;DHT22;590;48.772;8.846;2023-03-23T11:41:35;17.30;6.20
254;DHT22;590;48.772;8.846;2023-03-23T11:44:10;17.30;6.20
254;DHT22;590;48.772;8.846;2023-03-23T11:46:45;17.30;6.20
254;DHT22;590;48.772;8.846;2023-03-23T11:49:21;17.30;6.30
254;DHT22;590;48.772;8.846;2023-03-23T11:51:51;17.30;6.20
254;DHT22;590;48.772;8.846;2023-03-23T11:54:26;17.30;6.20
254;DHT22;590;48.772;8.846;2023-03-23T11:56:56;17.30;6.20
254;DHT22;590;48.772;8.846;2023-03-23T11:59:28;17.30;6.20
254;DHT22;590;48.772;8.846;2023-03-23T12:02:04;17.30;6.20
254;DHT22;590;48.772;8.846;2023-03-23T12:04:43;17.30;6.20
254;DHT22;590;48.772;8.846;2023-03-23T12:07:43;17.30;6.20
254;DHT22;590;48.772;8.846;2023-03-23T12:10:26;17.30;6.20
254;DHT22;590;48.772;8.846;2023-03-23T12:13:05;17.30;6.20
254;DHT22;590;48.772;8.846;2023-03-23T12:15:42;17.30;6.30
254;DHT22;590;48.772;8.846;2023-03-23T12:18:16;17.30;6.20
254;DHT22;590;48.772;8.846;2023-03-23T12:20:55;17.30;6.30
254;DHT22;590;48.772;8.846;2023-03-23T12:23:24;17.30;6.30
254;DHT22;590;48.772;8.846;2023-03-23T12:26:12;17.30;6.30
254;DHT22;590;48.772;8.846;2023-03-23T12:28:56;17.30;6.30
254;DHT22;590;48.772;8.846;2023-03-23T12:31:30;17.30;6.30
254;DHT22;590;48.772;8.846;2023-03-23T12:34:04;17.30;6.30
254;DHT22;590;48.772;8.846;2023-03-23T12:36:45;17.30;6.40
254;DHT22;590;48.772;8.846;2023-03-23T12:39:47;17.30;6.40
254;DHT22;590;48.772;8.846;2023-03-23T12:42:21;17.30;6.90
254;DHT22;590;48.772;8.846;2023-03-23T12:44:57;17.30;6.40
254;DHT22;590;48.772;8.846;2023-03-23T12:47:34;17.30;6.40
254;DHT22;590;48.772;8.846;2023-03-23T12:50:06;17.30;6.30
254;DHT22;590;48.772;8.846;2023-03-23T12:52:38;17.30;6.40
254;DHT22;590;48.772;8.846;2023-03-23T12:55:17;17.30;6.40
254;DHT22;590;48.772;8.846;2023-03-23T12:57:49;17.30;6.40
254;DHT22;590;48.772;8.846;2023-03-23T13:00:22;17.30;6.40
254;DHT22;590;48.772;8.846;2023-03-23T13:02:55;17.30;6.40
254;DHT22;590;48.772;8.846;2023-03-23T13:05:32;17.30;6.30
254;DHT22;590;48.772;8.846;2023-03-23T13:08:02;17.30;6.30
254;DHT22;590;48.772;8.846;2023-03-23T13:10:34;17.30;6.30
254;DHT22;590;48.772;8.846;2023-03-23T13:13:07;17.30;6.30
254;DHT22;590;48.772;8.846;2023-03-23T13:15:48;17.30;6.40
254;DHT22;590;48.772;8.846;2023-03-23T13:18:23;17.30;6.40
254;DHT22;590;48.772;8.846;2023-03-23T13:21:00;17.30;6.30
254;DHT22;590;48.772;8.846;2023-03-23T13:23:32;17.30;6.40
254;DHT22;590;48.772;8.846;2023-03-23T13:26:01;17.30;6.40
254;DHT22;590;48.772;8.846;2023-03-23T13:28:30;17.30;6.40
254;DHT22;590;48.772;8.846;2023-03-23T13:31:01;17.30;6.50
254;DHT22;590;48.772;8.846;2023-03-23T13:33:31;17.30;6.40
254;DHT22;590;48.772;8.846;2023-03-23T13:36:08;17.30;6.40
254;DHT22;590;48.772;8.846;2023-03-23T13:38:36;17.30;6.40
254;DHT22;590;48.772;8.846;2023-03-23T13:41:11;17.30;6.40
254;DHT22;590;48.772;8.846;2023-03-23T13:43:39;17.30;6.40
254;DHT22;590;48.772;8.846;2023-03-23T13:46:22;17.30;6.40
254;DHT22;590;48.772;8.846;2023-03-23T13:49:02;17.30;6.40
254;DHT22;590;48.772;8.846;2023-03-23T13:51:35;17.30;6.40
254;DHT22;590;48.772;8.846;2023-03-23T13:54:15;17.30;6.50
254;DHT22;590;48.772;8.846;2023-03-23T13:56:53;17.30;6.50
254;DHT22;590;48.772;8.846;2023-03-23T13:59:34;17.30;6.50
254;DHT22;590;48.772;8.846;2023-03-23T14:02:32;17.30;6.40
254;DHT22;590;48.772;8.846;2023-03-23T14:05:10;17.30;6.50
254;DHT22;590;48.772;8.846;2023-03-23T14:07:53;17.30;6.50
254;DHT22;590;48.772;8.846;2023-03-23T14:10:20;17.30;6.40
254;DHT22;590;48.772;8.846;2023-03-23T14:12:49;17.30;6.50
254;DHT22;590;48.772;8.846;2023-03-23T14:15:19;17.30;6.50
254;DHT22;590;48.772;8.846;2023-03-23T14:17:47;17.30;6.40
254;DHT22;590;48.772;8.846;2023-03-23T14:20:25;17.30;6.50
254;DHT22;590;48.772;8.846;2023-03-23T14:22:54;17.30;6.50
254;DHT22;590;48.772;8.846;2023-03-23T14:25:26;17.30;6.40
254;DHT22;590;48.772;8.846;2023-03-23T14:27:53;17.30;6.50
254;DHT22;590;48.772;8.846;2023-03-23T14:30:22;17.30;6.40
254;DHT22;590;48.772;8.846;2023-03-23T14:32:52;17.30;6.40
254;DHT22;590;48.772;8.846;2023-03-23T14:35:25;17.30;6.40
254;DHT22;590;48.772;8.846;2023-03-23T14:37:52;17.30;6.40
254;DHT22;590;48.772;8.846;2023-03-23T14:40:19;17.30;6.40
254;DHT22;590;48.772;8.846;2023-03-23T14:42:47;17.30;6.50
254;DHT22;590;48.772;8.846;2023-03-23T14:45:17;17.30;6.50
254;DHT22;590;48.772;8.846;2023-03-23T14:47:46;17.30;6.50
254;DHT22;590;48.772;8.846;2023-03-23T14:50:27;17.40;6.50
254;DHT22;590;48.772;8.846;2023-03-23T14:52:58;17.40;6.40
254;DHT22;590;48.772;8.846;2023-03-23T14:55:26;17.30;6.30
254;DHT22;590;48.772;8.846;2023-03-23T14:58:05;17.30;6.50
254;DHT22;590;48.772;8.846;2023-03-23T15:00:38;17.30;6.50
254;DHT22;590;48.772;8.846;2023-03-23T15:03:07;17.30;6.50
254;DHT22;590;48.772;8.846;2023-03-23T15:05:41;17.30;6.50
254;DHT22;590;48.772;8.846;2023-03-23T15:08:13;17.30;6.50
254;DHT22;590;48.772;8.846;2023-03-23T15:10:41;17.30;6.60
254;DHT22;590;48.772;8.846;2023-03-23T15:13:11;17.30;6.60
254;DHT22;590;48.772;8.846;2023-03-23T15:15:38;17.30;6.60
254;DHT22;590;48.772;8.846;2023-03-23T15:18:28;17.30;6.60
254;DHT22;590;48.772;8.846;2023-03-23T15:20:57;17.30;6.60
254;DHT22;590;48.772;8.846;2023-03-23T15:23:28;17.30;6.60
254;DHT22;590;48.772;8.846;2023-03-23T15:25:56;17.30;6.60
254;DHT22;590;48.772;8.846;2023-03-23T15:28:29;17.30;6.60
254;DHT22;590;48.772;8.846;2023-03-23T15:31:00;17.30;6.50
254;DHT22;590;48.772;8.846;2023-03-23T15:33:34;17.30;6.50
254;DHT22;590;48.772;8.846;2023-03-23T15:36:07;17.30;6.60
254;DHT22;590;48.772;8.846;2023-03-23T15:38:35;17.30;6.60
254;DHT22;590;48.772;8.846;2023-03-23T15:41:04;17.30;6.60
254;DHT22;590;48.772;8.846;2023-03-23T15:43:33;17.30;6.60
254;DHT22;590;48.772;8.846;2023-03-23T15:46:02;17.30;6.70
254;DHT22;590;48.772;8.846;2023-03-23T15:48:31;17.30;6.70
254;DHT22;590;48.772;8.846;2023-03-23T15:51:01;17.30;6.70
254;DHT22;590;48.772;8.846;2023-03-23T15:53:32;17.30;6.80
254;DHT22;590;48.772;8.846;2023-03-23T15:56:00;17.30;6.80
254;DHT22;590;48.772;8.846;2023-03-23T15:58:28;17.30;6.80
254;DHT22;590;48.772;8.846;2023-03-23T16:00:57;17.30;6.80
254;DHT22;590;48.772;8.846;2023-03-23T16:03:31;17.30;6.80
254;DHT22;590;48.772;8.846;2023-03-23T16:06:01;17.30;6.90
254;DHT22;590;48.772;8.846;2023-03-23T16:08:31;17.30;6.80
254;DHT22;590;48.772;8.846;2023-03-23T16:10:59;17.30;6.80
254;DHT22;590;48.772;8.846;2023-03-23T16:13:27;17.30;6.90
254;DHT22;590;48.772;8.846;2023-03-23T16:15:55;17.30;6.80
254;DHT22;590;48.772;8.846;2023-03-23T16:18:23;17.30;6.90
254;DHT22;590;48.772;8.846;2023-03-23T16:20:51;17.30;6.90
254;DHT22;590;48.772;8.846;2023-03-23T16:23:19;17.30;6.80
254;DHT22;590;48.772;8.846;2023-03-23T16:25:49;17.30;6.70
254;DHT22;590;48.772;8.846;2023-03-23T16:28:17;17.30;6.70
254;DHT22;590;48.772;8.846;2023-03-23T16:30:46;17.30;6.70
254;DHT22;590;48.772;8.846;2023-03-23T16:33:14;17.30;6.70
254;DHT22;590;48.772;8.846;2023-03-23T16:35:42;17.30;6.70
254;DHT22;590;48.772;8.846;2023-03-23T16:38:12;17.30;6.70
254;DHT22;590;48.772;8.846;2023-03-23T16:40:42;17.40;6.70
254;DHT22;590;48.772;8.846;2023-03-23T16:43:13;17.40;6.70
254;DHT22;590;48.772;8.846;2023-03-23T16:45:42;17.40;6.70
254;DHT22;590;48.772;8.846;2023-03-23T16:48:12;17.40;6.70
254;DHT22;590;48.772;8.846;2023-03-23T16:50:40;17.40;6.70
254;DHT22;590;48.772;8.846;2023-03-23T16:53:09;17.40;6.60
254;DHT22;590;48.772;8.846;2023-03-23T16:55:38;17.40;6.70
254;DHT22;590;48.772;8.846;2023-03-23T16:58:06;17.40;6.70
254;DHT22;590;48.772;8.846;2023-03-23T17:00:46;17.40;6.70
254;DHT22;590;48.772;8.846;2023-03-23T17:03:15;17.40;6.60
254;DHT22;590;48.772;8.846;2023-03-23T17:05:44;17.40;6.60
254;DHT22;590;48.772;8.846;2023-03-23T17:08:12;17.40;6.60
254;DHT22;590;48.772;8.846;2023-03-23T17:10:40;17.40;6.60
254;DHT22;590;48.772;8.846;2023-03-23T17:13:09;17.40;6.70